Time;durP1;ratioP1;P1;durP2;ratioP2;P2;SDS_P1;SDS_P2;PMS_P1;PMS_P2;Temp;Humidity;BMP_temperature;BMP_pressure;BME280_temperature;BME280_humidity;BME280_pressure;Samples;Min_cycle;Max_cycle;Signal;HPM_P1;HPM_P2
2021/03/23 00:00:49;;;;;;;83.15;31.85;;;;;;;0.07;67.06;98822.59;5066234;28;20059;-77
2021/03/23 00:03:22;;;;;;;66.03;27.30;;;;;;;0.13;67.09;98811.72;5066442;28;20147;-79
2021/03/23 00:05:48;;;;;;;70.68;29.65;;;;;;;0.15;66.77;98822.31;5063181;28;20036;-77
2021/03/23 00:08:32;;;;;;;78.45;32.30;;;;;;;0.16;66.72;98823.13;5056744;28;20083;-77
2021/03/23 00:11:04;;;;;;;76.45;29.67;;;;;;;0.17;66.66;98820.22;5058012;28;20032;-78
2021/03/23 00:13:30;;;;;;;75.30;30.23;;;;;;;0.18;66.28;98804.84;5066060;28;20563;-78
2021/03/23 00:15:55;;;;;;;67.68;26.95;;;;;;;0.21;66.45;98813.31;5065617;28;20042;-78
2021/03/23 00:18:21;;;;;;;70.13;27.35;;;;;;;0.22;66.63;98816.88;5065751;28;20032;-79
2021/03/23 00:20:47;;;;;;;62.05;26.20;;;;;;;0.24;66.43;98809.38;5081241;28;20369;-78
2021/03/23 00:23:13;;;;;;;55.17;22.42;;;;;;;0.22;66.29;98806.88;5067460;28;20039;-77
2021/03/23 00:25:39;;;;;;;65.30;26.13;;;;;;;0.21;66.19;98813.31;5067014;28;20717;-78
2021/03/23 00:28:05;;;;;;;65.75;26.75;;;;;;;0.24;66.35;98812.06;5057907;28;20044;-77
2021/03/23 00:30:31;;;;;;;58.38;23.42;;;;;;;0.24;66.11;98806.69;5057910;28;20036;-77
2021/03/23 00:32:57;;;;;;;57.55;23.25;;;;;;;0.22;66.20;98806.06;5062822;28;20020;-77
2021/03/23 00:35:23;;;;;;;61.33;24.45;;;;;;;0.22;66.15;98806.06;5065209;28;20043;-78
2021/03/23 00:37:51;;;;;;;66.18;26.40;;;;;;;0.21;66.17;98807.13;5066150;28;20028;-78
2021/03/23 00:40:19;;;;;;;61.63;24.92;;;;;;;0.19;66.29;98809.22;5068671;28;20311;-77
2021/03/23 00:42:44;;;;;;;61.78;25.23;;;;;;;0.18;66.03;98802.16;5064464;28;20502;-78
2021/03/23 00:45:11;;;;;;;59.00;23.65;;;;;;;0.18;66.06;98811.09;5077969;28;20028;-77
2021/03/23 00:47:36;;;;;;;54.85;23.25;;;;;;;0.18;66.16;98811.09;5063586;28;20479;-77
2021/03/23 00:50:02;;;;;;;55.05;21.77;;;;;;;0.18;66.03;98796.75;5057007;28;20540;-76
2021/03/23 00:52:28;;;;;;;53.05;23.25;;;;;;;0.20;66.09;98800.06;5057004;28;20077;-79
2021/03/23 00:54:53;;;;;;;46.15;19.92;;;;;;;0.21;66.39;98804.41;5065554;28;20024;-79
2021/03/23 00:57:19;;;;;;;48.53;20.48;;;;;;;0.21;65.78;98805.22;5065236;28;20372;-77
2021/03/23 00:59:45;;;;;;;50.15;19.83;;;;;;;0.20;66.17;98795.53;5066011;28;20100;-77
2021/03/23 01:02:10;;;;;;;52.50;22.52;;;;;;;0.21;66.05;98809.81;5066205;28;20105;-78
2021/03/23 01:04:36;;;;;;;49.60;21.92;;;;;;;0.22;65.99;98798.78;5066709;28;20465;-79
2021/03/23 01:07:01;;;;;;;57.22;22.65;;;;;;;0.24;65.97;98795.88;5065576;28;20024;-77
2021/03/23 01:09:27;;;;;;;48.67;21.13;;;;;;;0.24;66.01;98798.59;5072194;28;20436;-79
2021/03/23 01:11:53;;;;;;;49.90;21.02;;;;;;;0.26;65.89;98796.50;5054860;28;20043;-76
2021/03/23 01:14:19;;;;;;;50.30;21.33;;;;;;;0.25;66.15;98792.16;5059774;28;20032;-77
2021/03/23 01:16:44;;;;;;;46.20;21.40;;;;;;;0.26;65.95;98788.41;5065265;28;20133;-77
2021/03/23 01:19:09;;;;;;;58.55;24.33;;;;;;;0.22;65.80;98784.50;5065558;28;20411;-76
2021/03/23 01:21:35;;;;;;;56.10;24.40;;;;;;;0.19;65.94;98783.06;5064204;28;20105;-77
2021/03/23 01:24:00;;;;;;;65.38;26.75;;;;;;;0.17;65.94;98784.31;5065418;28;20023;-78
2021/03/23 01:26:26;;;;;;;71.95;29.27;;;;;;;0.10;65.91;98779.81;5064881;28;20044;-78
2021/03/23 01:28:51;;;;;;;69.70;30.13;;;;;;;0.06;65.93;98775.09;5076386;28;20092;-77
2021/03/23 01:31:16;;;;;;;62.25;25.20;;;;;;;0.03;66.30;98776.31;5056057;28;20074;-77
2021/03/23 01:33:42;;;;;;;55.28;22.35;;;;;;;0.00;66.22;98776.78;5054828;28;20032;-78
2021/03/23 01:36:07;;;;;;;59.95;24.02;;;;;;;0.00;66.23;98792.97;5061575;28;20029;-77
2021/03/23 01:38:33;;;;;;;67.10;27.65;;;;;;;-0.02;66.32;98779.69;5065111;28;20024;-78
2021/03/23 01:40:59;;;;;;;73.18;29.05;;;;;;;-0.03;66.21;98801.50;5063979;28;20020;-77
2021/03/23 01:43:31;;;;;;;74.47;31.90;;;;;;;-0.03;66.48;98788.03;5065257;28;20046;-78
2021/03/23 01:45:58;;;;;;;63.17;24.45;;;;;;;-0.02;66.38;98795.06;5065379;28;20039;-78
2021/03/23 01:48:26;;;;;;;71.32;28.17;;;;;;;0.01;66.39;98799.19;5065324;28;20111;-78
2021/03/23 01:50:55;;;;;;;77.10;27.98;;;;;;;0.03;66.00;98791.69;5060806;28;20221;-77
2021/03/23 01:53:27;;;;;;;77.60;29.85;;;;;;;0.05;66.19;98790.41;5056092;28;20024;-76
2021/03/23 01:55:52;;;;;;;78.88;30.95;;;;;;;0.06;66.36;98781.28;5056504;28;20137;-77
2021/03/23 01:58:19;;;;;;;80.40;31.60;;;;;;;0.11;66.12;98786.03;5065618;28;20024;-78
2021/03/23 02:00:49;;;;;;;71.13;30.50;;;;;;;0.13;66.05;98782.06;5064392;28;20128;-77
2021/03/23 02:03:16;;;;;;;55.13;23.55;;;;;;;0.18;65.89;98794.91;5064223;28;20044;-76
2021/03/23 02:05:41;;;;;;;57.05;23.30;;;;;;;0.22;65.96;98785.31;5067631;28;20043;-77
2021/03/23 02:08:08;;;;;;;54.55;22.70;;;;;;;0.26;65.97;98780.31;5064950;28;20021;-77
2021/03/23 02:10:34;;;;;;;46.65;20.85;;;;;;;0.27;65.98;98779.25;5063788;28;20025;-77
2021/03/23 02:13:03;;;;;;;43.05;18.15;;;;;;;0.32;65.47;98776.72;5059129;28;20043;-79
2021/03/23 02:15:29;;;;;;;41.97;17.17;;;;;;;0.34;65.39;98777.34;5060313;28;20123;-79
2021/03/23 02:18:25;;;;;;;54.45;20.20;;;;;;;0.35;65.43;98776.28;5062847;28;20079;-78
2021/03/23 02:21:07;;;;;;;42.72;17.58;;;;;;;0.37;65.31;98774.19;5064147;28;20047;-79
2021/03/23 02:23:39;;;;;;;38.90;16.88;;;;;;;0.39;65.22;98780.19;5064818;28;20119;-79
2021/03/23 02:26:06;;;;;;;31.85;14.52;;;;;;;0.41;64.95;98779.97;5065676;28;20028;-77
2021/03/23 02:28:59;;;;;;;46.38;18.38;;;;;;;0.43;64.97;98775.97;5065452;28;20039;-79
2021/03/23 02:31:50;;;;;;;37.35;16.08;;;;;;;0.47;64.56;98771.00;5064227;28;20038;-78
2021/03/23 02:34:21;;;;;;;35.53;15.32;;;;;;;0.49;64.71;98781.53;5051190;28;20543;-78
2021/03/23 02:36:48;;;;;;;40.83;16.75;;;;;;;0.48;64.90;98780.72;5055464;28;20020;-79
2021/03/23 02:39:26;;;;;;;39.83;16.58;;;;;;;0.49;64.52;98777.00;5060244;28;20024;-78
2021/03/23 02:41:54;;;;;;;40.70;16.77;;;;;;;0.50;64.37;98775.09;5067146;28;20051;-79
2021/03/23 02:44:19;;;;;;;35.38;16.30;;;;;;;0.51;64.54;98769.50;5068537;28;20025;-79
2021/03/23 02:46:45;;;;;;;38.65;17.40;;;;;;;0.53;64.36;98780.06;5068027;28;20017;-79
2021/03/23 02:49:11;;;;;;;39.28;17.45;;;;;;;0.49;64.11;98768.88;5067353;28;20434;-79
2021/03/23 02:51:36;;;;;;;41.78;17.08;;;;;;;0.51;64.57;98780.28;5067130;28;20032;-78
2021/03/23 02:54:02;;;;;;;37.08;15.98;;;;;;;0.53;64.64;98785.44;5077536;28;20374;-78
2021/03/23 02:56:28;;;;;;;35.45;15.45;;;;;;;0.53;64.08;98774.66;5059923;28;20029;-77
2021/03/23 02:58:53;;;;;;;34.20;14.18;;;;;;;0.53;64.19;98775.50;5058853;28;20028;-78
2021/03/23 03:01:18;;;;;;;36.17;15.23;;;;;;;0.52;64.08;98778.41;5067553;28;20044;-79
2021/03/23 03:03:44;;;;;;;37.58;16.05;;;;;;;0.52;64.33;98773.00;5068884;28;20040;-79
2021/03/23 03:06:10;;;;;;;35.50;15.05;;;;;;;0.54;64.08;98776.31;5070345;28;20032;-78
2021/03/23 03:08:36;;;;;;;33.88;14.80;;;;;;;0.55;64.05;98781.50;5066589;28;20036;-78
2021/03/23 03:11:04;;;;;;;29.65;13.50;;;;;;;0.55;63.95;98778.81;5066575;28;20069;-78
2021/03/23 03:13:29;;;;;;;32.97;14.27;;;;;;;0.54;63.83;98774.44;5068706;28;20037;-79
2021/03/23 03:15:56;;;;;;;34.05;14.23;;;;;;;0.56;63.87;98763.41;5061044;28;20013;-78
2021/03/23 03:18:23;;;;;;;33.72;14.20;;;;;;;0.58;64.29;98766.72;5057127;28;20017;-78
2021/03/23 03:20:49;;;;;;;32.60;14.63;;;;;;;0.61;63.61;98768.97;5061269;28;20127;-78
2021/03/23 03:23:16;;;;;;;32.78;14.23;;;;;;;0.65;63.78;98767.47;5067727;28;21106;-79
2021/03/23 03:25:41;;;;;;;31.83;14.10;;;;;;;0.65;63.66;98772.88;5067925;28;20063;-78
2021/03/23 03:28:07;;;;;;;31.55;13.27;;;;;;;0.67;63.64;98768.09;5086004;28;20020;-78
2021/03/23 03:30:36;;;;;;;31.45;12.60;;;;;;;0.70;63.50;98781.13;5092544;28;20483;-79
2021/03/23 03:33:02;;;;;;;30.30;13.52;;;;;;;0.72;63.54;98770.09;5093167;28;20012;-79
2021/03/23 03:35:35;;;;;;;29.63;13.95;;;;;;;0.73;63.49;98774.44;5093024;28;20074;-79
2021/03/23 03:38:02;;;;;;;28.58;12.75;;;;;;;0.74;63.41;98773.41;5092888;28;20025;-78
2021/03/23 03:40:31;;;;;;;26.65;13.35;;;;;;;0.76;63.38;98770.50;5092950;28;20024;-79
2021/03/23 03:42:57;;;;;;;28.75;14.13;;;;;;;0.77;63.35;98766.75;5092914;28;20077;-78
2021/03/23 03:45:23;;;;;;;29.50;13.43;;;;;;;0.76;63.18;98779.41;5093365;28;20032;-78
2021/03/23 03:47:50;;;;;;;27.63;12.35;;;;;;;0.73;62.84;98778.00;5092765;28;20537;-78
2021/03/23 03:50:16;;;;;;;33.55;13.95;;;;;;;0.71;63.25;98774.69;5091010;28;20024;-78
2021/03/23 03:52:42;;;;;;;33.03;14.23;;;;;;;0.69;63.00;98774.09;5092697;28;20389;-79
2021/03/23 03:55:07;;;;;;;36.17;15.93;;;;;;;0.68;63.07;98769.75;5092508;28;20034;-79
2021/03/23 03:57:33;;;;;;;41.30;17.95;;;;;;;0.64;63.13;98776.63;5092916;28;20028;-78
2021/03/23 03:59:58;;;;;;;37.72;17.48;;;;;;;0.63;63.22;98776.84;5092834;28;20024;-79
2021/03/23 04:02:23;;;;;;;33.63;15.23;;;;;;;0.63;63.26;98779.53;5092676;28;20548;-79
2021/03/23 04:04:49;;;;;;;39.25;17.75;;;;;;;0.61;62.78;98778.97;5091390;28;20058;-78
2021/03/23 04:07:14;;;;;;;39.97;18.23;;;;;;;0.58;63.00;98777.53;5092751;28;20351;-79
2021/03/23 04:09:40;;;;;;;52.13;20.95;;;;;;;0.57;63.25;98779.41;5092779;28;20023;-79
2021/03/23 04:12:07;;;;;;;61.50;25.05;;;;;;;0.56;63.15;98780.44;5092714;28;20024;-79
2021/03/23 04:14:32;;;;;;;62.50;24.73;;;;;;;0.58;63.12;98777.53;5092752;28;20232;-79
2021/03/23 04:16:58;;;;;;;63.25;25.27;;;;;;;0.55;62.87;98778.81;5092748;28;20020;-80
2021/03/23 04:19:23;;;;;;;52.88;22.83;;;;;;;0.53;63.25;98772.81;5092383;28;20391;-80
2021/03/23 04:21:48;;;;;;;47.80;22.40;;;;;;;0.51;63.38;98776.75;5092298;28;20016;-79
2021/03/23 04:24:14;;;;;;;46.05;18.85;;;;;;;0.53;63.33;98778.19;5092223;28;20024;-79
2021/03/23 04:26:39;;;;;;;37.13;15.52;;;;;;;0.54;63.25;98777.16;5092269;28;20069;-79
2021/03/23 04:29:05;;;;;;;35.03;15.10;;;;;;;0.56;63.33;98780.44;5091163;28;20012;-79
2021/03/23 04:31:35;;;;;;;33.30;14.75;;;;;;;0.58;63.05;98788.31;5092894;28;20020;-79
2021/03/23 04:34:02;;;;;;;31.52;13.93;;;;;;;0.61;63.00;98789.75;5092386;28;20089;-79
2021/03/23 04:36:28;;;;;;;36.65;15.90;;;;;;;0.62;63.00;98794.06;5092292;28;20103;-79
2021/03/23 04:38:54;;;;;;;33.60;15.15;;;;;;;0.65;63.00;98791.78;5092349;28;20531;-79
2021/03/23 04:41:20;;;;;;;34.28;15.23;;;;;;;0.66;63.06;98792.59;5092230;28;20106;-79
2021/03/23 04:43:48;;;;;;;26.20;12.38;;;;;;;0.67;62.82;98802.34;5092326;28;20016;-79
2021/03/23 04:46:19;;;;;;;31.90;14.90;;;;;;;0.67;62.81;98795.06;5090842;28;20031;-79
2021/03/23 04:48:45;;;;;;;34.55;15.68;;;;;;;0.69;62.58;98794.84;5089638;28;20031;-79
2021/03/23 04:51:12;;;;;;;31.77;14.93;;;;;;;0.70;62.96;98796.50;5092108;28;20016;-79
2021/03/23 04:53:40;;;;;;;34.88;15.77;;;;;;;0.71;63.00;98790.03;5091997;28;20369;-79
2021/03/23 04:56:07;;;;;;;31.55;13.65;;;;;;;0.76;62.58;98795.59;5089456;28;20440;-79
2021/03/23 04:58:32;;;;;;;24.63;12.25;;;;;;;0.81;63.03;98794.94;5092047;28;20020;-79
2021/03/23 05:00:59;;;;;;;29.00;13.25;;;;;;;0.83;62.44;98795.53;5091933;28;20016;-78
2021/03/23 05:03:27;;;;;;;26.70;12.13;;;;;;;0.90;62.51;98790.88;5088403;28;20040;-79
2021/03/23 05:05:57;;;;;;;25.73;10.82;;;;;;;0.96;62.09;98790.00;5091791;28;20039;-78
2021/03/23 05:08:24;;;;;;;29.42;12.35;;;;;;;1.00;61.77;98791.19;5091633;28;20027;-79
2021/03/23 05:10:51;;;;;;;26.42;10.85;;;;;;;1.00;61.68;98785.78;5091579;28;20028;-78
2021/03/23 05:13:16;;;;;;;27.73;11.77;;;;;;;1.02;61.95;98796.34;5090429;28;20052;-78
2021/03/23 05:15:42;;;;;;;21.85;10.52;;;;;;;1.04;61.78;98781.59;5091539;28;20424;-79
2021/03/23 05:18:07;;;;;;;21.25;10.70;;;;;;;1.07;61.57;98784.88;5091464;28;20077;-79
2021/03/23 05:20:33;;;;;;;25.95;11.20;;;;;;;1.09;61.74;98782.78;5091570;28;20051;-79
2021/03/23 05:22:58;;;;;;;23.38;9.45;;;;;;;1.14;61.65;98785.63;5091334;28;20035;-78
2021/03/23 05:25:24;;;;;;;26.52;11.57;;;;;;;1.16;61.80;98783.53;5091443;28;20085;-79
2021/03/23 05:27:49;;;;;;;17.65;7.93;;;;;;;1.17;61.40;98790.59;5091472;28;20028;-79
2021/03/23 05:30:15;;;;;;;22.52;11.02;;;;;;;1.17;61.45;98785.19;5091644;28;20039;-78
2021/03/23 05:32:41;;;;;;;22.02;10.68;;;;;;;1.21;61.05;98788.25;5091239;28;20487;-78
2021/03/23 05:35:08;;;;;;;22.83;10.10;;;;;;;1.23;61.19;98795.06;5091474;28;20020;-78
2021/03/23 05:37:33;;;;;;;23.02;8.50;;;;;;;1.28;61.17;98794.41;5090122;28;20035;-78
2021/03/23 05:39:59;;;;;;;24.83;10.25;;;;;;;1.30;61.00;98800.41;5091136;28;20028;-78
2021/03/23 05:42:33;;;;;;;21.42;8.98;;;;;;;1.30;60.91;98795.81;5091140;28;20044;-78
2021/03/23 05:45:13;;;;;;;20.27;9.52;;;;;;;1.29;60.87;98804.16;5091209;28;20028;-79
2021/03/23 05:47:43;;;;;;;28.88;11.82;;;;;;;1.31;61.03;98797.47;5090275;28;20032;-78
2021/03/23 05:50:08;;;;;;;;;;;;;;;1.37;60.87;98798.44;5089242;28;20115;-78
2021/03/23 05:52:38;;;;;;;15.98;7.50;;;;;;;1.36;60.59;98794.09;5091117;28;20002;-77
2021/03/23 05:55:04;;;;;;;;;;;;;;;1.37;60.81;98792.19;5091708;28;20509;-78
2021/03/23 05:57:34;;;;;;;17.92;8.00;;;;;;;1.36;60.57;98796.81;5091122;28;19912;-78
2021/03/23 06:00:25;;;;;;;18.02;8.15;;;;;;;1.41;60.75;98796.94;5091044;28;20535;-78
2021/03/23 06:02:59;;;;;;;18.25;7.82;;;;;;;1.45;60.40;98797.31;5089009;28;20373;-78
2021/03/23 06:05:45;;;;;;;18.10;7.47;;;;;;;1.46;60.50;98804.34;5091077;28;20375;-78
2021/03/23 06:08:34;;;;;;;22.55;9.13;;;;;;;1.52;60.04;98802.59;5089037;28;20024;-78
2021/03/23 06:11:05;;;;;;;15.10;7.35;;;;;;;1.52;60.08;98797.19;5090160;28;20047;-78
2021/03/23 06:13:41;;;;;;;14.23;7.30;;;;;;;1.57;60.47;98806.31;5089446;28;20069;-78
2021/03/23 06:16:31;;;;;;;14.82;7.22;;;;;;;1.61;60.21;98801.25;5092143;28;20024;-79
2021/03/23 06:19:22;;;;;;;16.63;7.70;;;;;;;1.69;60.43;98806.34;5093538;28;20020;-78
2021/03/23 06:22:00;;;;;;;20.92;9.13;;;;;;;1.71;60.14;98798.81;5091548;28;20074;-78
2021/03/23 06:24:31;;;;;;;19.88;8.70;;;;;;;1.75;59.85;98805.44;5091582;28;20767;-78
2021/03/23 06:26:56;;;;;;;17.80;7.60;;;;;;;1.83;59.92;98808.88;5094435;28;20048;-79
2021/03/23 06:30:10;;;;;;;16.58;7.60;;;;;;;1.89;60.07;98802.50;5094272;28;20132;-78
2021/03/23 06:32:51;;;;;;;15.50;7.15;;;;;;;1.95;59.75;98803.47;5028866;28;20477;-78
2021/03/23 06:35:28;;;;;;;14.73;6.53;;;;;;;2.02;60.10;98799.59;5093001;28;20051;-78
2021/03/23 06:37:54;;;;;;;14.63;7.38;;;;;;;2.06;59.37;98806.22;5092519;28;20020;-78
2021/03/23 06:40:24;;;;;;;18.63;7.82;;;;;;;2.16;59.13;98807.53;5094192;28;20099;-78
2021/03/23 06:42:52;;;;;;;21.70;10.40;;;;;;;2.20;58.92;98808.72;5091955;28;20145;-78
2021/03/23 06:45:17;;;;;;;17.90;9.02;;;;;;;2.24;59.68;98804.50;5094271;28;20024;-79
2021/03/23 06:47:43;;;;;;;21.70;8.57;;;;;;;2.26;58.89;98805.06;5094057;28;20020;-78
2021/03/23 06:50:22;;;;;;;22.50;12.18;;;;;;;2.32;59.38;98801.41;5094364;28;20028;-79
2021/03/23 06:53:08;;;;;;;19.08;8.55;;;;;;;2.36;58.62;98793.66;5091799;28;20073;-78
2021/03/23 06:55:34;;;;;;;18.85;8.40;;;;;;;2.41;59.02;98803.78;5092658;28;20036;-78
2021/03/23 06:58:00;;;;;;;22.52;8.52;;;;;;;2.43;58.66;98798.97;5094141;28;20024;-79
2021/03/23 07:00:28;;;;;;;23.60;10.77;;;;;;;2.49;59.06;98814.28;5091348;28;20074;-78
2021/03/23 07:03:10;;;;;;;21.80;10.93;;;;;;;2.56;58.90;98808.72;5093814;28;20399;-79
2021/03/23 07:05:38;;;;;;;80.25;36.83;;;;;;;2.60;58.13;98827.00;5092547;28;20039;-75
2021/03/23 07:08:10;;;;;;;174.98;83.30;;;;;;;2.67;58.08;98824.97;5093656;28;20024;-77
2021/03/23 07:10:51;;;;;;;64.07;31.75;;;;;;;2.73;57.82;98816.97;5093851;28;20031;-78
2021/03/23 07:13:25;;;;;;;64.28;27.85;;;;;;;2.75;58.38;98821.13;5092190;28;20016;-78
2021/03/23 07:16:00;;;;;;;26.45;10.70;;;;;;;2.76;57.70;98814.63;5091417;28;20077;-78
2021/03/23 07:18:30;;;;;;;32.22;14.40;;;;;;;2.79;57.45;98813.31;5093255;28;20502;-77
2021/03/23 07:21:06;;;;;;;35.65;11.60;;;;;;;2.83;58.29;98820.75;5093435;28;20020;-77
2021/03/23 07:23:41;;;;;;;38.88;13.88;;;;;;;2.89;58.16;98821.69;5091144;28;20028;-77
2021/03/23 07:26:29;;;;;;;35.38;11.60;;;;;;;2.93;58.05;98825.56;5089578;28;20038;-76
2021/03/23 07:29:23;;;;;;;32.42;9.95;;;;;;;2.96;57.76;98835.09;5091505;28;20024;-77
2021/03/23 07:32:06;;;;;;;23.27;10.27;;;;;;;3.00;57.33;98832.75;5081073;28;20063;-78
2021/03/23 07:34:42;;;;;;;22.08;8.52;;;;;;;3.01;57.54;98837.13;5090003;28;20114;-77
2021/03/23 07:37:17;;;;;;;24.73;9.52;;;;;;;2.98;57.79;98836.53;5090677;28;20117;-78
2021/03/23 07:39:55;;;;;;;28.48;12.50;;;;;;;2.96;57.41;98835.94;5093759;28;20445;-77
2021/03/23 07:42:43;;;;;;;32.95;11.43;;;;;;;3.01;58.55;98840.63;5094582;28;20028;-76
2021/03/23 07:45:34;;;;;;;25.35;8.60;;;;;;;3.01;57.91;98840.63;5094840;28;20027;-78
2021/03/23 07:48:15;;;;;;;27.40;10.27;;;;;;;3.04;57.68;98839.34;5094364;28;20024;-76
2021/03/23 07:50:45;;;;;;;24.80;10.35;;;;;;;3.07;57.74;98834.28;5094090;28;20460;-75
2021/03/23 07:53:24;;;;;;;25.83;10.80;;;;;;;3.11;58.19;98840.03;5094077;28;20107;-75
2021/03/23 07:55:51;;;;;;;18.67;8.63;;;;;;;3.09;57.76;98839.44;5094326;28;20052;-75
2021/03/23 07:58:35;;;;;;;23.52;8.95;;;;;;;3.08;58.18;98840.50;5093933;28;20028;-74
2021/03/23 08:01:06;;;;;;;18.55;7.72;;;;;;;3.09;57.80;98847.56;5094010;28;20024;-74
2021/03/23 08:04:00;;;;;;;26.23;9.43;;;;;;;3.04;57.98;98842.88;5092679;28;20044;-74
2021/03/23 08:06:31;;;;;;;26.52;8.75;;;;;;;3.04;58.25;98842.06;5092376;28;20020;-75
2021/03/23 08:09:03;;;;;;;28.55;11.93;;;;;;;3.08;58.35;98859.47;5089291;28;20401;-75
2021/03/23 08:11:38;;;;;;;18.65;7.57;;;;;;;3.07;58.38;98855.94;5092547;28;20052;-74
2021/03/23 08:14:30;;;;;;;30.98;10.98;;;;;;;2.95;58.95;98850.56;5092168;28;20063;-75
2021/03/23 08:17:17;;;;;;;27.30;10.00;;;;;;;2.97;58.94;98851.13;5093356;28;20024;-75
2021/03/23 08:19:57;;;;;;;21.23;8.27;;;;;;;3.00;58.72;98844.41;5093948;28;20472;-75
2021/03/23 08:22:28;;;;;;;;;;;;;;;3.02;58.79;98842.28;5094269;28;20404;-75
2021/03/23 08:24:59;;;;;;;21.67;7.93;;;;;;;3.08;59.12;98854.88;5092437;28;19912;-75
2021/03/23 08:27:46;;;;;;;32.30;13.68;;;;;;;3.17;59.20;98855.34;5092376;28;20028;-76
2021/03/23 08:30:40;;;;;;;20.88;9.00;;;;;;;3.26;59.14;98856.63;5093669;28;20032;-74
2021/03/23 08:33:51;;;;;;;26.73;11.15;;;;;;;3.30;59.25;98859.69;5093563;28;20058;-75
2021/03/23 08:37:00;;;;;;;25.67;10.65;;;;;;;3.23;59.24;98854.41;5093462;28;20028;-76
2021/03/23 08:39:28;;;;;;;25.88;10.55;;;;;;;3.20;59.99;98863.00;5093099;28;20442;-76
2021/03/23 08:42:02;;;;;;;22.48;9.77;;;;;;;3.15;59.73;98865.59;5093127;28;20039;-76
2021/03/23 08:44:43;;;;;;;14.60;7.07;;;;;;;3.14;59.93;98869.38;5092979;28;20028;-72
2021/03/23 08:47:23;;;;;;;18.27;8.95;;;;;;;3.13;59.73;98862.28;5093196;28;20108;-73
2021/03/23 08:49:50;;;;;;;16.95;8.25;;;;;;;3.17;60.97;98874.31;5093209;28;20024;-73
2021/03/23 08:52:34;;;;;;;17.30;8.15;;;;;;;3.15;60.43;98875.63;5092887;28;20016;-72
2021/03/23 08:55:00;;;;;;;19.30;9.63;;;;;;;3.12;60.52;98872.34;5093071;28;20430;-73
2021/03/23 08:57:46;;;;;;;18.13;7.60;;;;;;;3.04;60.78;98877.28;5093028;28;20028;-72
2021/03/23 09:00:36;;;;;;;23.65;10.60;;;;;;;3.02;61.18;98868.56;5092865;28;20020;-73
2021/03/23 09:03:42;;;;;;;21.17;8.68;;;;;;;2.92;61.51;98867.28;5092609;28;20040;-72
2021/03/23 09:06:12;;;;;;;27.30;10.45;;;;;;;2.94;61.68;98867.88;5092726;28;20038;-73
2021/03/23 09:08:49;;;;;;;25.85;11.90;;;;;;;3.09;61.77;98870.09;5091397;28;20047;-73
2021/03/23 09:11:38;;;;;;;19.10;10.85;;;;;;;3.25;61.78;98873.97;5091614;28;20464;-73
2021/03/23 09:14:06;;;;;;;22.95;11.07;;;;;;;3.33;61.63;98872.75;5092146;28;20039;-74
2021/03/23 09:16:46;;;;;;;17.45;8.23;;;;;;;3.34;62.43;98866.28;5090928;28;20064;-73
2021/03/23 09:19:28;;;;;;;;;;;;;;;3.38;62.91;98861.22;5092758;28;20099;-73
2021/03/23 09:21:57;;;;;;;27.95;12.63;;;;;;;3.39;62.65;98865.56;5092256;28;19962;-73
2021/03/23 09:24:37;;;;;;;31.08;16.77;;;;;;;3.47;62.43;98870.59;5092268;28;20028;-73
2021/03/23 09:27:08;;;;;;;18.75;9.27;;;;;;;3.56;62.99;98874.59;5092787;28;20030;-73
2021/03/23 09:29:40;;;;;;;22.27;10.88;;;;;;;3.52;62.82;98867.19;5092689;28;20503;-73
2021/03/23 09:32:10;;;;;;;17.92;9.50;;;;;;;3.45;62.36;98871.91;5092546;28;20024;-73
2021/03/23 09:35:01;;;;;;;18.27;9.70;;;;;;;3.38;62.40;98869.34;5092775;28;20077;-73
2021/03/23 09:37:52;;;;;;;22.25;9.55;;;;;;;3.35;63.39;98875.25;5092735;28;20383;-73
2021/03/23 09:40:17;;;;;;;25.08;11.25;;;;;;;3.39;63.88;98876.44;5092506;28;20046;-73
2021/03/23 09:43:03;;;;;;;15.85;7.97;;;;;;;3.30;63.51;98883.28;5092290;28;20479;-73
2021/03/23 09:45:38;;;;;;;22.70;9.85;;;;;;;3.26;63.83;98875.59;5081410;28;20071;-73
2021/03/23 09:48:29;;;;;;;22.95;11.05;;;;;;;3.20;64.00;98868.44;5091286;28;20024;-73
2021/03/23 09:50:54;;;;;;;29.88;12.77;;;;;;;3.16;64.57;98872.66;5096541;28;20028;-73
2021/03/23 09:53:43;;;;;;;70.88;22.17;;;;;;;3.15;64.59;98862.88;5096680;28;20020;-73
2021/03/23 09:56:19;;;;;;;26.50;12.15;;;;;;;3.11;64.56;98877.97;5096721;28;20031;-74
2021/03/23 09:58:45;;;;;;;71.55;23.35;;;;;;;3.08;65.73;98883.88;5095420;28;20032;-73
2021/03/23 10:01:15;;;;;;;28.77;13.63;;;;;;;3.04;65.48;98880.00;5096741;28;20052;-73
2021/03/23 10:03:42;;;;;;;53.17;17.10;;;;;;;3.04;65.30;98867.25;5096454;28;20048;-73
2021/03/23 10:06:20;;;;;;;94.40;22.95;;;;;;;3.09;66.06;98886.34;5096364;28;20082;-73
2021/03/23 10:09:06;;;;;;;99.78;23.45;;;;;;;3.27;66.90;98877.25;5096421;28;20036;-74
2021/03/23 10:11:40;;;;;;;44.13;14.52;;;;;;;3.49;66.55;98873.91;5096365;28;20522;-73
2021/03/23 10:14:12;;;;;;;30.83;11.75;;;;;;;3.67;67.07;98881.03;5096257;28;20028;-73
2021/03/23 10:16:40;;;;;;;21.67;10.38;;;;;;;3.69;66.92;98880.81;5096190;28;20028;-73
2021/03/23 10:19:11;;;;;;;65.90;20.88;;;;;;;3.65;67.33;98893.22;5096059;28;20024;-73
2021/03/23 10:21:44;;;;;;;28.30;11.13;;;;;;;3.61;67.63;98883.91;5095990;28;20121;-73
2021/03/23 10:24:23;;;;;;;37.72;15.07;;;;;;;3.65;67.65;98885.91;5095776;28;20051;-73
2021/03/23 10:26:51;;;;;;;38.57;15.60;;;;;;;3.70;68.36;98879.75;5095852;28;20053;-73
2021/03/23 10:29:25;;;;;;;30.35;14.57;;;;;;;3.91;68.07;98877.44;5095873;28;20021;-72
2021/03/23 10:31:53;;;;;;;34.50;13.40;;;;;;;4.15;67.98;98875.44;5095972;28;20024;-73
2021/03/23 10:34:23;;;;;;;34.13;15.32;;;;;;;4.30;67.74;98872.16;5094530;28;20407;-73
2021/03/23 10:37:05;;;;;;;32.80;14.63;;;;;;;4.51;67.96;98864.38;5095767;28;20012;-73
2021/03/23 10:39:41;;;;;;;25.33;13.70;;;;;;;4.53;67.81;98864.97;5095631;28;20066;-73
2021/03/23 10:42:24;;;;;;;27.30;13.43;;;;;;;4.50;67.54;98871.69;5095467;28;20468;-73
2021/03/23 10:45:12;;;;;;;21.77;10.48;;;;;;;4.37;67.11;98870.13;5095174;28;20107;-73
2021/03/23 10:47:45;;;;;;;35.05;17.27;;;;;;;4.29;67.65;98862.38;5095238;28;20052;-73
2021/03/23 10:50:26;;;;;;;29.73;12.75;;;;;;;4.23;67.77;98874.25;5095587;28;20479;-73
2021/03/23 10:53:07;;;;;;;29.65;13.93;;;;;;;4.20;67.90;98869.28;5095543;28;20601;-73
2021/03/23 10:55:34;;;;;;;17.13;9.38;;;;;;;4.17;68.46;98870.59;5095556;28;20035;-73
2021/03/23 10:58:16;;;;;;;17.52;10.07;;;;;;;4.10;68.00;98870.75;5095499;28;20020;-74
2021/03/23 11:00:42;;;;;;;20.10;12.98;;;;;;;4.09;68.13;98877.25;5094202;28;20105;-73
2021/03/23 11:03:13;;;;;;;21.40;12.65;;;;;;;4.03;68.73;98870.06;5094959;28;20048;-74
2021/03/23 11:05:47;;;;;;;17.05;10.60;;;;;;;4.06;68.18;98872.31;5095219;28;20040;-74
2021/03/23 11:08:14;;;;;;;21.05;13.93;;;;;;;4.06;69.43;98883.16;5095198;28;20035;-74
2021/03/23 11:10:39;;;;;;;20.65;12.02;;;;;;;4.05;68.56;98878.00;5095147;28;20028;-74
2021/03/23 11:13:05;;;;;;;27.20;15.23;;;;;;;4.01;68.87;98883.91;5095028;28;20357;-73
2021/03/23 11:15:36;;;;;;;22.88;12.63;;;;;;;4.03;69.44;98886.34;5094806;28;20032;-74
2021/03/23 11:18:02;;;;;;;34.03;15.82;;;;;;;4.00;68.81;98884.97;5094913;28;20020;-73
2021/03/23 11:20:37;;;;;;;40.30;18.10;;;;;;;4.02;69.40;98888.25;5094774;28;20058;-74
2021/03/23 11:23:24;;;;;;;42.60;18.58;;;;;;;4.09;68.86;98888.09;5095129;28;20081;-73
2021/03/23 11:25:49;;;;;;;26.33;14.13;;;;;;;4.24;69.05;98884.03;5094676;28;20055;-73
2021/03/23 11:28:19;;;;;;;16.10;9.50;;;;;;;4.30;68.81;98867.56;5093419;28;20067;-74
2021/03/23 11:30:45;;;;;;;15.38;8.73;;;;;;;4.43;68.88;98876.50;5094572;28;20016;-73
2021/03/23 11:33:14;;;;;;;23.33;12.52;;;;;;;4.56;67.99;98870.72;5094509;28;20028;-73
2021/03/23 11:35:43;;;;;;;19.38;11.25;;;;;;;4.69;68.09;98864.13;5094528;28;20482;-74
2021/03/23 11:38:08;;;;;;;19.25;11.73;;;;;;;4.82;68.04;98867.59;5094569;28;20028;-74
2021/03/23 11:40:34;;;;;;;18.77;12.07;;;;;;;4.96;67.54;98859.91;5094591;28;20046;-74
2021/03/23 11:43:00;;;;;;;19.85;11.15;;;;;;;5.12;68.06;98861.78;5093195;28;20028;-74
2021/03/23 11:45:34;;;;;;;14.32;9.45;;;;;;;5.27;67.20;98855.72;5094159;28;20471;-73
2021/03/23 11:48:05;;;;;;;13.77;9.18;;;;;;;5.34;66.53;98858.25;5094268;28;20028;-74
2021/03/23 11:50:33;;;;;;;13.93;8.45;;;;;;;5.38;65.66;98870.28;5094325;28;20028;-74